Time;durP1;ratioP1;P1;durP2;ratioP2;P2;SDS_P1;SDS_P2;PMS_P1;PMS_P2;Temp;Humidity;BMP_temperature;BMP_pressure;BME280_temperature;BME280_humidity;BME280_pressure;Samples;Min_cycle;Max_cycle;Signal;HPM_P1;HPM_P2
2021/12/08 00:01:36;;;;;;;12.52;4.18;;;3.20;99.90;;;;;;5048160;28;20283;-83
2021/12/08 00:04:02;;;;;;;9.23;3.42;;;3.20;99.90;;;;;;5031832;28;20359;-83
2021/12/08 00:06:28;;;;;;;14.18;3.75;;;3.10;99.90;;;;;;5029608;28;20051;-83
2021/12/08 00:09:25;;;;;;;13.25;3.63;;;3.10;99.90;;;;;;5043851;28;20039;-83
2021/12/08 00:14:36;;;;;;;12.07;3.70;;;3.00;99.90;;;;;;5064158;28;20013;-84
2021/12/08 00:17:02;;;;;;;9.77;3.45;;;2.90;99.90;;;;;;5048202;28;20033;-83
2021/12/08 00:19:54;;;;;;;10.07;3.90;;;2.90;99.90;;;;;;5046878;28;20021;-83
2021/12/08 00:22:26;;;;;;;11.35;3.80;;;;;;;;;;5057746;28;20048;-85
2021/12/08 00:25:29;;;;;;;10.10;3.42;;;2.80;99.90;;;;;;5064044;28;20021;-83
2021/12/08 00:27:57;;;;;;;11.43;4.13;;;2.80;99.90;;;;;;5060181;28;20033;-83
2021/12/08 00:30:24;;;;;;;11.30;3.92;;;4.30;99.90;;;;;;5020376;28;20029;-82
2021/12/08 00:32:51;;;;;;;13.70;4.20;;;3.20;99.90;;;;;;5048486;28;20356;-84
2021/12/08 00:35:17;;;;;;;10.75;3.78;;;2.70;99.90;;;;;;5063791;28;20033;-84
2021/12/08 00:37:43;;;;;;;10.63;4.40;;;2.80;99.90;;;;;;5047418;28;20044;-83
2021/12/08 00:40:13;;;;;;;15.13;4.32;;;2.70;99.90;;;;;;5047432;28;20032;-84
2021/12/08 00:42:42;;;;;;;13.75;4.30;;;3.80;99.90;;;;;;5063429;28;20029;-85
2021/12/08 00:45:10;;;;;;;16.55;4.70;;;2.80;99.90;;;;;;5060633;28;20059;-84
2021/12/08 00:47:37;;;;;;;12.65;4.53;;;3.10;99.90;;;;;;5063825;28;20045;-84
2021/12/08 00:50:08;;;;;;;10.90;4.50;;;3.30;99.90;;;;;;5064060;28;20082;-84
2021/12/08 00:52:35;;;;;;;12.18;4.07;;;2.70;99.90;;;;;;5047070;28;20029;-83
2021/12/08 00:55:12;;;;;;;11.18;4.25;;;3.60;99.90;;;;;;5038017;28;20017;-84
2021/12/08 00:57:38;;;;;;;13.68;4.00;;;2.80;99.90;;;;;;5049398;28;20032;-83
2021/12/08 01:00:14;;;;;;;13.45;4.10;;;3.90;99.90;;;;;;5046946;28;20072;-83
2021/12/08 01:02:43;;;;;;;13.40;4.10;;;2.80;99.90;;;;;;5046575;28;20145;-84
2021/12/08 01:05:15;;;;;;;12.15;4.10;;;1.80;99.90;;;;;;5054778;28;20191;-83
2021/12/08 01:07:41;;;;;;;9.65;3.90;;;3.20;99.90;;;;;;5046884;28;20055;-83
2021/12/08 01:10:13;;;;;;;10.32;3.90;;;2.90;99.90;;;;;;5046650;28;20025;-83
2021/12/08 01:12:39;;;;;;;12.75;4.38;;;2.90;99.90;;;;;;5061609;28;20033;-84
2021/12/08 01:15:06;;;;;;;13.70;4.10;;;2.90;99.90;;;;;;5045190;28;20067;-84
2021/12/08 01:17:34;;;;;;;11.98;3.85;;;2.90;99.90;;;;;;5045368;28;20287;-84
2021/12/08 01:20:00;;;;;;;10.35;3.90;;;3.00;99.90;;;;;;5030143;28;20025;-84
2021/12/08 01:22:26;;;;;;;12.88;4.00;;;3.00;99.90;;;;;;5045438;28;20020;-84
2021/12/08 01:24:52;;;;;;;11.10;4.20;;;4.10;99.90;;;;;;5024784;28;20264;-85
2021/12/08 01:27:18;;;;;;;14.43;4.03;;;4.80;99.90;;;;;;5045758;28;20274;-86
2021/12/08 01:29:47;;;;;;;8.73;3.60;;;3.10;99.90;;;;;;5064189;28;20092;-83
2021/12/08 01:32:23;;;;;;;11.43;3.67;;;4.10;99.90;;;;;;5029795;28;20339;-85
2021/12/08 01:34:54;;;;;;;13.00;3.75;;;3.10;99.90;;;;;;5022163;28;20176;-84
2021/12/08 01:37:26;;;;;;;11.85;4.10;;;3.10;99.90;;;;;;5064030;28;20357;-84
2021/12/08 01:39:51;;;;;;;12.93;4.20;;;3.10;99.90;;;;;;5063148;28;20315;-84
2021/12/08 01:42:26;;;;;;;11.60;4.32;;;4.30;99.90;;;;;;5028353;28;20066;-83
2021/12/08 01:47:45;;;;;;;11.15;4.13;;;3.60;99.90;;;;;;5059864;28;20072;-85
2021/12/08 01:50:11;;;;;;;13.02;4.93;;;4.50;99.90;;;;;;5046159;28;20029;-85
2021/12/08 01:52:38;;;;;;;10.65;3.67;;;3.30;99.90;;;;;;5060850;28;20100;-85
2021/12/08 01:55:05;;;;;;;10.90;4.05;;;3.40;99.90;;;;;;5024961;28;20053;-85
2021/12/08 01:57:34;;;;;;;13.25;3.63;;;3.40;99.90;;;;;;5046561;28;20021;-85
2021/12/08 02:00:00;;;;;;;9.25;3.38;;;;;;;;;;5029657;28;20020;-84
2021/12/08 02:02:26;;;;;;;10.52;3.38;;;3.40;99.90;;;;;;5046060;28;20151;-84
2021/12/08 02:04:55;;;;;;;11.00;4.10;;;3.40;99.90;;;;;;5052635;28;20033;-84
2021/12/08 02:07:21;;;;;;;12.75;3.65;;;3.50;99.90;;;;;;5060438;28;20023;-86
2021/12/08 02:09:47;;;;;;;10.55;3.70;;;3.40;99.90;;;;;;5045149;28;20171;-84
2021/12/08 02:12:13;;;;;;;10.50;3.78;;;3.50;99.90;;;;;;5062206;28;20071;-83
2021/12/08 02:14:57;;;;;;;11.15;3.60;;;3.50;99.90;;;;;;5029440;28;20025;-85
2021/12/08 02:17:25;;;;;;;13.25;3.90;;;3.50;99.90;;;;;;5045443;28;20013;-84
2021/12/08 02:19:54;;;;;;;11.48;3.80;;;3.50;99.90;;;;;;5045379;28;20279;-84
2021/12/08 02:22:20;;;;;;;10.80;4.00;;;3.60;99.90;;;;;;5062519;28;20017;-85
2021/12/08 02:24:45;;;;;;;10.82;3.92;;;3.50;99.90;;;;;;5040472;28;20251;-85
2021/12/08 02:27:20;;;;;;;14.82;3.90;;;4.70;99.90;;;;;;5045085;28;20021;-84
2021/12/08 02:29:54;;;;;;;11.35;3.80;;;3.60;99.90;;;;;;5058435;28;20093;-85
2021/12/08 02:48:33;;;;;;;9.63;3.50;;;3.60;99.90;;;;;;5048048;28;20060;-84
2021/12/08 02:50:59;;;;;;;10.80;3.97;;;3.80;99.90;;;;;;5061836;28;20025;-84
2021/12/08 02:53:25;;;;;;;10.68;4.03;;;3.60;99.90;;;;;;5044990;28;20025;-84
2021/12/08 02:55:51;;;;;;;13.88;3.80;;;3.60;99.90;;;;;;5045253;28;20021;-84
2021/12/08 02:58:19;;;;;;;11.50;3.70;;;3.60;99.90;;;;;;5028164;28;20124;-84
2021/12/08 03:00:55;;;;;;;11.77;4.10;;;4.10;99.90;;;;;;5062462;28;20017;-83
2021/12/08 03:03:21;;;;;;;9.90;3.65;;;3.60;99.90;;;;;;5044623;28;20013;-84
2021/12/08 03:05:47;;;;;;;12.10;3.88;;;3.60;99.90;;;;;;5061103;28;20252;-83
2021/12/08 03:08:15;;;;;;;9.93;3.80;;;3.60;99.90;;;;;;5061429;28;20033;-84
2021/12/08 03:10:45;;;;;;;9.50;3.95;;;4.20;99.90;;;;;;5031116;28;20066;-83
2021/12/08 03:13:11;;;;;;;10.98;3.90;;;3.60;99.90;;;;;;5037561;28;20290;-84
2021/12/08 03:15:38;;;;;;;10.93;3.60;;;3.60;99.90;;;;;;5021793;28;20033;-82
2021/12/08 03:18:06;;;;;;;10.07;4.22;;;4.50;99.90;;;;;;5044578;28;20293;-84
2021/12/08 03:20:40;;;;;;;9.85;4.00;;;5.20;99.90;;;;;;5061924;28;20036;-85
2021/12/08 03:23:14;;;;;;;10.73;3.58;;;3.60;99.90;;;;;;5045006;28;20216;-84
2021/12/08 03:25:43;;;;;;;11.43;3.85;;;3.70;99.90;;;;;;5061196;28;20152;-84
2021/12/08 03:28:20;;;;;;;9.90;4.35;;;4.20;99.90;;;;;;5027927;28;20025;-84
2021/12/08 03:31:03;;;;;;;9.82;3.83;;;3.70;99.90;;;;;;5061072;28;20171;-84
2021/12/08 03:33:35;;;;;;;11.40;4.22;;;3.70;99.90;;;;;;5046251;28;20075;-82
2021/12/08 03:36:01;;;;;;;9.48;3.97;;;3.70;99.90;;;;;;5048857;28;20108;-82
2021/12/08 03:38:27;;;;;;;11.07;4.15;;;3.70;99.90;;;;;;5048945;28;20191;-83
2021/12/08 03:41:04;;;;;;;12.10;4.80;;;3.80;99.90;;;;;;5048625;28;20039;-85
2021/12/08 03:43:33;;;;;;;9.48;4.38;;;4.00;99.90;;;;;;5030138;28;20037;-84
2021/12/08 03:46:04;;;;;;;12.10;4.75;;;3.80;99.90;;;;;;5048575;28;20033;-85
2021/12/08 03:48:45;;;;;;;12.38;4.53;;;3.80;99.90;;;;;;5048774;28;20040;-83
2021/12/08 03:51:11;;;;;;;12.07;4.90;;;3.80;99.90;;;;;;5064636;28;20028;-84
2021/12/08 03:53:37;;;;;;;11.63;4.55;;;4.30;99.90;;;;;;5066158;28;20071;-84
2021/12/08 03:56:03;;;;;;;10.93;4.88;;;5.00;99.90;;;;;;5064632;28;20017;-84
2021/12/08 03:58:29;;;;;;;9.20;4.53;;;3.90;99.90;;;;;;5029525;28;20354;-83
2021/12/08 04:00:57;;;;;;;11.05;5.13;;;4.20;99.90;;;;;;5030068;28;20091;-85
2021/12/08 04:03:26;;;;;;;13.65;5.32;;;4.00;99.90;;;;;;5048193;28;20084;-84
2021/12/08 04:06:07;;;;;;;11.50;5.38;;;4.00;99.90;;;;;;5031072;28;20075;-84
2021/12/08 04:08:53;;;;;;;9.73;5.00;;;4.00;99.90;;;;;;5063770;28;20056;-84
2021/12/08 04:11:20;;;;;;;14.25;5.50;;;4.00;99.90;;;;;;5063162;28;20052;-84
2021/12/08 04:13:58;;;;;;;12.90;5.63;;;4.60;99.90;;;;;;5048434;28;20048;-84
2021/12/08 04:16:29;;;;;;;10.13;5.45;;;4.90;99.90;;;;;;5047687;28;20333;-84
2021/12/08 04:18:59;;;;;;;10.88;5.50;;;4.40;99.90;;;;;;5047556;28;20028;-84
2021/12/08 04:21:32;;;;;;;10.38;5.50;;;4.10;99.90;;;;;;5047557;28;21062;-85
2021/12/08 04:23:58;;;;;;;12.98;6.22;;;4.10;99.90;;;;;;5064559;28;20025;-83
2021/12/08 04:26:36;;;;;;;13.82;6.10;;;4.10;99.90;;;;;;5047340;28;20036;-83
2021/12/08 04:29:04;;;;;;;13.38;6.25;;;4.60;99.90;;;;;;5064471;28;20211;-84
2021/12/08 04:31:39;;;;;;;13.95;6.40;;;4.20;99.90;;;;;;5062175;28;20084;-84
2021/12/08 04:34:12;;;;;;;13.70;6.35;;;4.20;99.90;;;;;;5060967;28;20023;-83
2021/12/08 04:36:44;;;;;;;16.98;7.57;;;4.20;99.90;;;;;;5064153;28;20108;-84
2021/12/08 04:39:18;;;;;;;11.45;6.45;;;5.70;99.90;;;;;;5064438;28;20055;-83
2021/12/08 04:41:50;;;;;;;17.17;6.80;;;5.50;99.90;;;;;;5047001;28;20044;-85
2021/12/08 04:44:29;;;;;;;11.73;7.22;;;4.30;99.90;;;;;;5063852;28;20060;-83
2021/12/08 04:49:54;;;;;;;13.02;7.00;;;4.30;99.90;;;;;;5062860;28;20041;-83
2021/12/08 04:52:40;;;;;;;11.50;7.07;;;4.70;99.90;;;;;;5059188;28;20275;-83
2021/12/08 05:09:36;;;;;;;15.02;7.40;;;4.50;99.90;;;;;;5056718;28;20033;-84
2021/12/08 05:12:22;;;;;;;13.48;7.82;;;4.50;99.90;;;;;;5063059;28;20021;-84
2021/12/08 05:15:16;;;;;;;13.50;7.97;;;4.50;99.90;;;;;;5045798;28;20036;-86
2021/12/08 05:18:10;;;;;;;13.90;7.50;;;4.60;99.90;;;;;;5062815;28;20194;-84
2021/12/08 05:20:43;;;;;;;;;;;4.50;99.90;;;;;;5061708;28;20017;-84
2021/12/08 05:23:40;;;;;;;14.73;7.55;;;4.60;99.90;;;;;;5062891;28;19972;-84
2021/12/08 05:26:13;;;;;;;15.05;7.97;;;4.60;99.90;;;;;;5056563;28;20033;-84
2021/12/08 05:28:40;;;;;;;14.13;8.25;;;4.60;99.90;;;;;;5060206;28;20049;-84
2021/12/08 05:31:12;;;;;;;14.23;8.35;;;4.60;99.90;;;;;;5044262;28;20025;-83
2021/12/08 05:33:42;;;;;;;13.30;8.02;;;4.60;99.90;;;;;;5062505;28;20097;-83
2021/12/08 05:36:10;;;;;;;14.85;8.00;;;4.70;99.90;;;;;;5062696;28;20029;-83
2021/12/08 05:38:38;;;;;;;13.48;7.95;;;4.70;99.90;;;;;;5062987;28;20040;-84
2021/12/08 05:41:18;;;;;;;13.80;8.50;;;4.70;99.90;;;;;;5044286;28;20016;-84
2021/12/08 05:43:46;;;;;;;16.60;8.98;;;5.60;99.90;;;;;;5058177;28;20017;-83
2021/12/08 05:46:15;;;;;;;14.25;7.78;;;4.70;99.90;;;;;;5062199;28;20024;-83
2021/12/08 05:48:45;;;;;;;14.20;8.00;;;4.70;99.90;;;;;;5025463;28;20261;-83
2021/12/08 05:51:49;;;;;;;14.27;7.85;;;4.70;99.90;;;;;;5045801;28;20195;-84
2021/12/08 05:54:30;;;;;;;13.70;8.30;;;4.70;99.90;;;;;;5037431;28;20065;-84
2021/12/08 05:56:58;;;;;;;16.58;8.15;;;4.80;99.90;;;;;;5043895;28;20060;-85
2021/12/08 05:59:24;;;;;;;13.93;7.85;;;4.80;99.90;;;;;;5045376;28;20025;-84
2021/12/08 06:02:14;;;;;;;14.25;7.95;;;4.80;99.90;;;;;;5020140;28;20153;-84
2021/12/08 06:04:41;;;;;;;14.50;7.63;;;4.80;99.90;;;;;;5061341;28;20057;-84
2021/12/08 06:07:14;;;;;;;13.25;7.60;;;5.10;99.90;;;;;;5061263;28;20025;-83
2021/12/08 06:09:55;;;;;;;14.10;7.65;;;4.80;99.90;;;;;;5042756;28;20091;-83
2021/12/08 06:12:22;;;;;;;14.27;7.75;;;4.90;99.90;;;;;;5051513;28;20283;-83
2021/12/08 06:14:54;;;;;;;13.98;7.93;;;5.90;99.90;;;;;;5044663;28;20020;-82
2021/12/08 06:17:20;;;;;;;13.18;7.32;;;4.90;99.90;;;;;;5040647;28;20305;-82
2021/12/08 06:19:47;;;;;;;13.60;7.45;;;4.90;99.90;;;;;;5043312;28;20098;-84
2021/12/08 06:22:16;;;;;;;14.27;8.15;;;5.20;99.90;;;;;;5028814;28;20227;-84
2021/12/08 06:24:42;;;;;;;14.95;7.75;;;5.00;99.90;;;;;;5044487;28;20025;-82
2021/12/08 06:27:09;;;;;;;14.70;7.43;;;4.90;99.90;;;;;;5060745;28;20033;-84
2021/12/08 06:29:44;;;;;;;13.55;7.53;;;4.90;99.90;;;;;;5044647;28;20031;-83
2021/12/08 06:32:12;;;;;;;13.77;8.00;;;4.90;99.90;;;;;;5060344;28;20255;-83
2021/12/08 06:35:06;;;;;;;12.07;7.32;;;4.90;99.90;;;;;;5042797;28;20037;-83
2021/12/08 06:37:37;;;;;;;12.68;7.35;;;5.00;99.90;;;;;;5045099;28;20028;-84
2021/12/08 06:40:32;;;;;;;14.65;7.57;;;4.90;99.90;;;;;;5061655;28;20165;-84
2021/12/08 06:43:03;;;;;;;14.25;7.93;;;4.90;99.90;;;;;;5024656;28;20025;-83
2021/12/08 06:45:36;;;;;;;15.45;8.13;;;5.70;99.90;;;;;;5063051;28;20096;-83
2021/12/08 06:48:06;;;;;;;16.25;7.10;;;5.60;99.90;;;;;;5061571;28;20104;-84
2021/12/08 06:50:54;;;;;;;13.38;7.35;;;4.90;99.90;;;;;;5055452;28;20181;-84
2021/12/08 06:53:22;;;;;;;14.73;7.03;;;4.90;99.90;;;;;;5061539;28;20199;-84
2021/12/08 06:55:56;;;;;;;13.43;7.15;;;4.90;99.90;;;;;;5061866;28;20017;-84
2021/12/08 06:58:26;;;;;;;12.95;6.90;;;4.90;99.90;;;;;;5044805;28;20049;-82
2021/12/08 07:04:34;;;;;;;15.57;7.03;;;4.90;99.90;;;;;;5048688;28;20103;-83
2021/12/08 07:07:20;;;;;;;12.10;6.80;;;4.90;99.90;;;;;;5044590;28;20060;-83
2021/12/08 07:10:10;;;;;;;13.50;6.60;;;5.20;99.90;;;;;;5059343;28;20017;-83
2021/12/08 07:12:45;;;;;;;13.35;6.05;;;4.90;99.90;;;;;;5033734;28;20255;-85
2021/12/08 07:15:16;;;;;;;14.10;6.38;;;5.40;99.90;;;;;;5038767;28;20021;-84
2021/12/08 07:18:02;;;;;;;14.10;5.90;;;5.00;99.90;;;;;;5060572;28;20031;-83
2021/12/08 07:20:43;;;;;;;13.18;5.57;;;5.00;99.90;;;;;;5052281;28;20048;-84
2021/12/08 07:23:20;;;;;;;11.43;5.60;;;5.10;99.90;;;;;;5056083;28;20037;-84
2021/12/08 07:25:47;;;;;;;12.80;5.95;;;5.50;99.90;;;;;;5057728;28;20056;-84
2021/12/08 07:28:14;;;;;;;12.35;5.82;;;5.10;99.90;;;;;;5060849;28;20021;-83
2021/12/08 07:31:04;;;;;;;14.07;5.38;;;5.10;99.90;;;;;;5026113;28;20168;-84
2021/12/08 07:33:43;;;;;;;13.05;5.95;;;5.00;99.90;;;;;;5042240;28;20096;-82
2021/12/08 07:36:17;;;;;;;11.82;5.70;;;5.00;99.90;;;;;;5043311;28;20131;-84
2021/12/08 07:38:51;;;;;;;10.98;5.28;;;4.60;99.90;;;;;;5059911;28;20207;-83
2021/12/08 07:41:24;;;;;;;13.85;5.72;;;5.30;99.90;;;;;;5060202;28;20021;-83
2021/12/08 07:43:53;;;;;;;14.13;5.45;;;5.40;99.90;;;;;;5051064;28;20028;-82
2021/12/08 07:46:27;;;;;;;10.25;5.00;;;4.90;99.90;;;;;;5059138;28;20122;-82
2021/12/08 07:49:00;;;;;;;12.88;4.80;;;4.80;99.90;;;;;;5054380;28;20097;-83
2021/12/08 07:51:39;;;;;;;12.65;4.15;;;4.90;99.90;;;;;;5040403;28;20032;-84
2021/12/08 07:54:06;;;;;;;12.13;4.40;;;4.80;99.90;;;;;;5043024;28;20025;-83
2021/12/08 07:56:35;;;;;;;10.98;3.90;;;4.90;99.90;;;;;;5043928;28;20063;-83
2021/12/08 07:59:08;;;;;;;12.00;3.63;;;4.80;99.90;;;;;;5024748;28;20056;-82
2021/12/08 08:01:59;;;;;;;11.20;3.67;;;4.90;99.90;;;;;;5043073;28;20028;-82
2021/12/08 08:04:27;;;;;;;8.82;3.60;;;4.90;99.90;;;;;;5051845;28;20225;-84
2021/12/08 08:06:57;;;;;;;12.45;3.70;;;5.50;99.90;;;;;;5060938;28;20039;-83
2021/12/08 08:09:28;;;;;;;11.93;3.85;;;4.90;99.90;;;;;;5061082;28;20057;-83
2021/12/08 08:11:58;;;;;;;9.68;3.35;;;4.90;99.90;;;;;;5059428;28;20017;-83
2021/12/08 08:14:40;;;;;;;11.23;3.45;;;4.90;99.90;;;;;;5041259;28;20020;-84
2021/12/08 08:17:18;;;;;;;12.27;3.47;;;5.50;99.90;;;;;;5061238;28;20029;-83
2021/12/08 08:19:50;;;;;;;9.68;3.38;;;5.00;99.90;;;;;;5059890;28;20082;-83
2021/12/08 08:22:28;;;;;;;9.90;3.13;;;4.90;99.90;;;;;;5045980;28;20056;-84
2021/12/08 08:24:58;;;;;;;9.70;3.38;;;4.80;99.90;;;;;;5065365;28;20029;-83
2021/12/08 08:27:25;;;;;;;9.57;3.47;;;4.90;99.90;;;;;;5023839;28;20049;-83
2021/12/08 08:29:54;;;;;;;9.95;3.40;;;4.90;99.90;;;;;;5026903;28;20024;-84
2021/12/08 08:32:29;;;;;;;9.45;3.20;;;4.90;99.90;;;;;;5060537;28;20021;-83
2021/12/08 08:35:12;;;;;;;9.63;3.05;;;5.00;99.90;;;;;;5063636;28;20009;-83
2021/12/08 08:37:39;;;;;;;12.07;3.40;;;5.00;99.90;;;;;;5064153;28;20059;-83
2021/12/08 08:40:16;;;;;;;11.15;3.50;;;6.20;99.90;;;;;;5026857;28;20030;-83
2021/12/08 08:42:44;;;;;;;11.77;4.00;;;5.20;99.90;;;;;;5046954;28;20028;-83
2021/12/08 08:45:12;;;;;;;10.27;3.63;;;6.40;99.90;;;;;;5062445;28;20222;-83
2021/12/08 08:47:45;;;;;;;8.23;2.92;;;5.10;99.90;;;;;;5046926;28;20021;-83
2021/12/08 08:50:23;;;;;;;13.55;3.72;;;5.10;99.90;;;;;;5063763;28;20143;-83
2021/12/08 08:52:53;;;;;;;8.50;2.70;;;5.10;99.90;;;;;;5046093;28;20123;-84
2021/12/08 08:55:28;;;;;;;13.05;3.40;;;6.30;99.90;;;;;;5062788;28;20290;-83
2021/12/08 08:57:55;;;;;;;9.65;3.00;;;5.20;99.90;;;;;;5063568;28;20045;-83
2021/12/08 09:00:34;;;;;;;10.88;2.80;;;5.30;99.90;;;;;;5063663;28;20016;-83
2021/12/08 09:03:05;;;;;;;9.73;3.00;;;6.20;99.90;;;;;;5062937;28;20091;-85
2021/12/08 09:05:37;;;;;;;12.30;3.03;;;5.30;99.90;;;;;;5080185;28;20079;-83
2021/12/08 09:08:16;;;;;;;13.45;3.20;;;5.40;99.90;;;;;;5028649;28;20048;-83
2021/12/08 09:10:49;;;;;;;9.52;3.05;;;5.50;99.90;;;;;;5046569;28;20087;-82
2021/12/08 09:13:52;;;;;;;11.02;2.97;;;5.50;99.90;;;;;;5061604;28;20032;-83
2021/12/08 09:16:22;;;;;;;10.27;2.63;;;5.60;99.90;;;;;;5043777;28;20048;-84
2021/12/08 09:19:13;;;;;;;10.30;2.47;;;5.20;99.90;;;;;;5062912;28;20056;-84
2021/12/08 09:22:04;;;;;;;11.35;3.13;;;5.60;99.90;;;;;;5052799;28;20037;-83
2021/12/08 09:24:44;;;;;;;10.07;2.42;;;5.60;99.90;;;;;;5063028;28;20040;-83
2021/12/08 09:27:19;;;;;;;11.32;2.65;;;5.60;99.90;;;;;;5063191;28;20160;-83
2021/12/08 09:29:55;;;;;;;10.77;2.50;;;7.00;99.90;;;;;;5056548;28;20017;-83
2021/12/08 09:32:42;;;;;;;11.43;2.75;;;5.60;99.90;;;;;;5046353;28;20083;-82
2021/12/08 09:35:22;;;;;;;10.40;2.30;;;5.60;99.90;;;;;;5062797;28;20031;-83
2021/12/08 09:37:56;;;;;;;10.38;2.30;;;6.90;99.90;;;;;;5051724;28;20040;-83
2021/12/08 09:40:50;;;;;;;11.15;2.63;;;5.60;99.90;;;;;;5059561;28;20016;-83
2021/12/08 09:43:21;;;;;;;10.77;2.83;;;5.60;99.90;;;;;;5045970;28;20032;-83
2021/12/08 09:45:54;;;;;;;14.48;2.65;;;6.70;99.90;;;;;;5061442;28;20337;-82
2021/12/08 09:48:20;;;;;;;13.57;2.70;;;5.60;99.90;;;;;;5062522;28;20149;-83
2021/12/08 09:50:52;;;;;;;10.00;2.47;;;5.60;99.90;;;;;;5044422;28;20099;-82
2021/12/08 09:53:23;;;;;;;9.35;2.60;;;5.60;99.90;;;;;;5045844;28;20017;-83
2021/12/08 09:55:53;;;;;;;19.75;3.17;;;5.60;99.90;;;;;;5038350;28;20032;-83
2021/12/08 09:58:19;;;;;;;10.88;2.50;;;5.60;99.90;;;;;;5059876;28;20229;-82
2021/12/08 10:00:59;;;;;;;11.65;2.63;;;5.70;99.90;;;;;;5043791;28;20187;-83
2021/12/08 10:03:35;;;;;;;12.75;2.75;;;5.70;99.90;;;;;;5044816;28;20088;-83
2021/12/08 10:06:02;;;;;;;13.27;2.70;;;5.20;99.90;;;;;;5045514;28;20029;-83
2021/12/08 10:08:29;;;;;;;11.13;2.95;;;5.80;99.90;;;;;;5045230;28;20256;-83
2021/12/08 10:10:58;;;;;;;12.38;2.85;;;5.90;99.90;;;;;;5045129;28;20025;-83
2021/12/08 10:13:24;;;;;;;11.77;2.80;;;7.30;99.90;;;;;;5061882;28;20028;-83
2021/12/08 10:15:52;;;;;;;10.98;2.45;;;6.00;99.90;;;;;;5062871;28;20313;-83
2021/12/08 10:18:22;;;;;;;10.85;2.50;;;6.10;99.90;;;;;;5027834;28;20022;-83
2021/12/08 10:20:51;;;;;;;8.82;2.70;;;5.50;99.90;;;;;;5076706;28;20317;-82
2021/12/08 10:23:27;;;;;;;14.05;3.05;;;6.50;99.90;;;;;;5062930;28;20429;-83
2021/12/08 10:26:07;;;;;;;11.82;2.60;;;6.00;99.90;;;;;;5044645;28;20017;-83
2021/12/08 10:28:36;;;;;;;10.60;2.40;;;6.30;99.90;;;;;;5045819;28;20056;-82
2021/12/08 10:31:26;;;;;;;12.35;2.53;;;;;;;;;;5061032;28;20057;-82
2021/12/08 10:34:01;;;;;;;11.43;3.00;;;6.30;99.90;;;;;;5051401;28;20025;-83
2021/12/08 10:36:46;;;;;;;12.90;2.80;;;7.80;99.90;;;;;;5061622;28;20180;-82
2021/12/08 10:39:38;;;;;;;10.88;2.78;;;6.30;99.90;;;;;;5061324;28;20139;-83
2021/12/08 10:42:09;;;;;;;11.55;2.10;;;6.30;99.90;;;;;;5043215;28;20029;-82
2021/12/08 10:45:28;;;;;;;12.32;3.22;;;6.30;99.90;;;;;;5038931;28;20020;-82
2021/12/08 10:47:36;;;;;;;10.93;2.90;;;6.30;99.90;;;;;;5046027;28;20175;-83
2021/12/08 10:55:34;;;;;;;8.85;2.40;;;7.80;99.90;;;;;;5058628;28;20033;-82
2021/12/08 10:58:03;;;;;;;11.23;2.60;;;6.30;99.90;;;;;;5029515;28;20028;-83
2021/12/08 11:00:39;;;;;;;9.98;2.53;;;6.40;99.90;;;;;;5061085;28;20025;-83
2021/12/08 11:03:16;;;;;;;9.10;2.33;;;6.00;99.90;;;;;;5061330;28;20286;-83
2021/12/08 11:05:46;;;;;;;12.10;3.13;;;6.00;99.90;;;;;;5045240;28;20033;-83
2021/12/08 11:08:39;;;;;;;12.00;2.38;;;6.40;99.90;;;;;;5061939;28;20035;-83
2021/12/08 11:11:24;;;;;;;8.70;2.67;;;6.50;99.90;;;;;;5060913;28;20012;-83
2021/12/08 11:14:05;;;;;;;10.05;2.25;;;6.60;99.90;;;;;;5036841;28;20047;-83
2021/12/08 11:16:35;;;;;;;11.02;2.72;;;6.50;99.90;;;;;;5040152;28;20021;-83
2021/12/08 11:19:31;;;;;;;15.50;3.47;;;6.60;99.90;;;;;;5043257;28;20275;-82
2021/12/08 11:22:06;;;;;;;9.93;2.20;;;;;;;;;;5041479;28;20113;-83
2021/12/08 11:24:49;;;;;;;10.35;2.67;;;6.60;99.90;;;;;;5045470;28;20021;-83
2021/12/08 11:27:36;;;;;;;13.45;3.33;;;6.60;99.90;;;;;;5011001;28;20097;-82
2021/12/08 11:30:22;;;;;;;10.20;3.00;;;7.50;99.90;;;;;;5041308;28;20033;-82
2021/12/08 11:32:50;;;;;;;10.07;2.50;;;6.60;99.90;;;;;;5043756;28;20260;-83
2021/12/08 11:35:22;;;;;;;10.68;2.60;;;6.60;99.90;;;;;;5025865;28;20290;-82
2021/12/08 11:38:06;;;;;;;11.32;2.83;;;6.60;99.90;;;;;;5057699;28;20289;-83
2021/12/08 11:40:37;;;;;;;9.45;2.50;;;6.50;99.90;;;;;;5044227;28;20066;-83
2021/12/08 11:43:03;;;;;;;10.07;2.65;;;6.40;99.90;;;;;;5060569;28;20045;-83
2021/12/08 11:45:39;;;;;;;9.98;2.40;;;6.50;99.90;;;;;;5044550;28;20302;-84
2021/12/08 11:48:21;;;;;;;10.10;2.72;;;6.40;99.90;;;;;;5042193;28;20056;-83
2021/12/08 11:50:47;;;;;;;9.27;2.55;;;7.50;99.90;;;;;;5059232;28;20044;-82
2021/12/08 11:53:22;;;;;;;10.32;2.60;;;6.50;99.90;;;;;;5044110;28;20025;-82
2021/12/08 11:55:48;;;;;;;13.32;2.70;;;8.00;99.90;;;;;;5057186;28;20078;-83
2021/12/08 11:58:17;;;;;;;8.88;2.58;;;6.50;99.90;;;;;;5048125;28;20107;-82
2021/12/08 12:00:50;;;;;;;9.95;2.47;;;;;;;;;;5061531;28;20049;-82
2021/12/08 12:03:20;;;;;;;;;;;6.50;99.90;;;;;;5048267;28;20037;-85
2021/12/08 12:05:49;;;;;;;11.20;2.35;;;6.50;99.90;;;;;;5045665;28;19931;-84
2021/12/08 12:08:22;;;;;;;11.48;2.78;;;;;;;;;;5048065;28;20029;-83
2021/12/08 12:10:51;;;;;;;8.75;2.20;;;6.50;99.90;;;;;;5044203;28;20048;-83
2021/12/08 12:13:17;;;;;;;7.70;2.53;;;6.40;99.90;;;;;;5065094;28;20096;-82
2021/12/08 12:15:47;;;;;;;11.48;2.70;;;6.40;99.90;;;;;;5024456;28;20024;-81
2021/12/08 12:18:23;;;;;;;9.50;2.13;;;6.40;99.90;;;;;;5064459;28;20021;-82
2021/12/08 12:21:00;;;;;;;8.85;2.65;;;6.40;99.90;;;;;;5048203;28;20041;-82
2021/12/08 12:24:02;;;;;;;9.35;2.55;;;6.40;99.90;;;;;;5047947;28;20017;-82
2021/12/08 12:27:04;;;;;;;11.52;2.88;;;6.30;99.90;;;;;;5063925;28;20284;-83
2021/12/08 12:29:49;;;;;;;12.82;2.83;;;6.40;99.90;;;;;;5063465;28;20029;-82
2021/12/08 12:32:18;;;;;;;9.55;2.38;;;6.30;99.90;;;;;;5064213;28;20033;-83
2021/12/08 12:35:03;;;;;;;10.55;3.10;;;6.30;99.90;;;;;;5063310;28;20052;-83
2021/12/08 12:37:35;;;;;;;8.90;2.33;;;6.30;99.90;;;;;;5046460;28;20097;-83
2021/12/08 12:40:28;;;;;;;8.57;2.40;;;6.30;99.90;;;;;;5047192;28;20036;-83
2021/12/08 12:42:59;;;;;;;9.63;2.83;;;6.30;99.90;;;;;;5061368;28;20044;-84
2021/12/08 12:45:38;;;;;;;10.45;2.83;;;6.30;99.90;;;;;;5063494;28;20031;-83
2021/12/08 12:48:18;;;;;;;11.57;2.47;;;6.20;99.90;;;;;;5060532;28;20319;-83
2021/12/08 12:51:04;;;;;;;11.38;2.42;;;6.30;99.90;;;;;;5062985;28;20037;-83
2021/12/08 12:53:41;;;;;;;7.45;2.38;;;6.20;99.90;;;;;;5062218;28;20071;-83
2021/12/08 12:56:12;;;;;;;10.32;2.70;;;6.20;99.90;;;;;;5042423;28;20191;-82
2021/12/08 12:58:40;;;;;;;9.43;2.40;;;6.20;99.90;;;;;;5027878;28;20036;-82
2021/12/08 13:01:11;;;;;;;12.30;2.53;;;6.20;99.90;;;;;;5046672;28;20171;-82
2021/12/08 13:03:44;;;;;;;11.90;2.80;;;6.20;99.90;;;;;;5063875;28;20148;-82
2021/12/08 13:06:11;;;;;;;;;;;6.20;99.90;;;;;;5033108;28;20037;-82
2021/12/08 13:08:51;;;;;;;9.43;2.63;;;6.20;99.90;;;;;;5043786;28;19968;-83
2021/12/08 13:11:29;;;;;;;9.15;2.55;;;6.20;99.90;;;;;;5030832;28;20029;-83
2021/12/08 13:13:56;;;;;;;8.93;2.42;;;6.20;99.90;;;;;;5063205;28;20088;-83
2021/12/08 13:16:28;;;;;;;9.90;2.50;;;6.20;99.90;;;;;;5062475;28;20128;-83
2021/12/08 13:19:02;;;;;;;10.50;2.70;;;6.20;99.90;;;;;;5041159;28;20020;-83
2021/12/08 13:21:46;;;;;;;10.88;2.92;;;6.20;99.90;;;;;;5046586;28;20264;-84
2021/12/08 13:24:41;;;;;;;13.70;2.60;;;6.20;99.90;;;;;;5063651;28;20032;-83
2021/12/08 13:27:17;;;;;;;10.55;2.60;;;6.20;99.90;;;;;;5053249;28;20225;-82
2021/12/08 13:30:27;;;;;;;7.85;2.50;;;6.10;99.90;;;;;;5019118;28;20033;-83
2021/12/08 13:33:29;;;;;;;8.35;2.45;;;6.10;99.90;;;;;;5062970;28;20017;-82
2021/12/08 13:36:23;;;;;;;11.38;2.90;;;6.10;99.90;;;;;;5047581;28;20093;-81
2021/12/08 13:38:57;;;;;;;10.27;2.60;;;6.10;99.90;;;;;;5041272;28;20040;-82
2021/12/08 13:41:28;;;;;;;11.52;2.50;;;6.10;99.90;;;;;;5061171;28;20044;-83
2021/12/08 13:43:55;;;;;;;9.25;2.47;;;6.10;99.90;;;;;;5064201;28;20037;-83
2021/12/08 13:46:37;;;;;;;9.82;2.90;;;6.10;99.90;;;;;;5062386;28;20075;-82
2021/12/08 13:49:16;;;;;;;11.68;2.50;;;6.10;99.90;;;;;;5041202;28;20068;-82
2021/12/08 13:52:07;;;;;;;10.07;2.33;;;6.10;99.90;;;;;;5046688;28;20096;-82
2021/12/08 13:54:40;;;;;;;8.45;2.50;;;6.10;99.90;;;;;;5043206;28;20219;-82
2021/12/08 13:57:31;;;;;;;10.13;2.28;;;6.10;99.90;;;;;;5045713;28;20029;-83
2021/12/08 14:00:18;;;;;;;7.72;2.50;;;6.20;99.90;;;;;;5043929;28;20032;-83
2021/12/08 14:02:54;;;;;;;;;;;;;;;;;;;;;
2021/12/08 14:05:30;;;;;;;9.32;2.17;;;7.00;99.90;;;;;;5062672;28;20048;-83
2021/12/08 14:07:58;;;;;;;8.40;2.33;;;7.40;99.90;;;;;;5062870;28;20282;-82
2021/12/08 14:10:30;;;;;;;12.18;2.47;;;7.60;99.90;;;;;;5061855;28;20048;-83
2021/12/08 14:13:12;;;;;;;8.15;2.05;;;7.70;99.90;;;;;;5046162;28;20020;-82
2021/12/08 14:15:44;;;;;;;9.55;2.38;;;7.80;99.90;;;;;;5060528;28;20525;-82
2021/12/08 14:18:16;;;;;;;11.20;2.95;;;;;;;;;;5046025;28;20032;-82